Time;durP1;ratioP1;P1;durP2;ratioP2;P2;SDS_P1;SDS_P2;PMS_P1;PMS_P2;Temp;Humidity;BMP_temperature;BMP_pressure;BME280_temperature;BME280_humidity;BME280_pressure;Samples;Min_cycle;Max_cycle;Signal;HPM_P1;HPM_P2
2021/01/27 00:00:32;;;;;;;;;;;18.50;36.80;;;;;;466645;255;1179;-54
2021/01/27 00:02:33;;;;;;;;;;;18.40;36.80;;;;;;470719;253;1106;-53
2021/01/27 00:04:35;;;;;;;;;;;18.40;35.50;;;;;;466753;255;1347;-53
2021/01/27 00:06:36;;;;;;;;;;;18.40;36.80;;;;;;470726;253;1047;-53
2021/01/27 00:08:37;;;;;;;;;;;18.40;36.80;;;;;;466643;255;1084;-53
2021/01/27 00:10:38;;;;;;;;;;;18.40;36.80;;;;;;470769;253;1314;-54
2021/01/27 00:12:40;;;;;;;;;;;18.40;36.80;;;;;;466618;256;1355;-54
2021/01/27 00:14:41;;;;;;;;;;;18.40;36.90;;;;;;470698;253;1356;-53
2021/01/27 00:16:42;;;;;;;;;;;18.40;36.90;;;;;;466791;255;1199;-53
2021/01/27 00:18:43;;;;;;;;;;;18.40;36.90;;;;;;470792;253;2128;-54
2021/01/27 00:20:45;;;;;;;;;;;18.40;36.90;;;;;;466744;255;1022;-53
2021/01/27 00:22:47;;;;;;;;;;;18.40;36.90;;;;;;470955;253;1079;-54
2021/01/27 00:24:48;;;;;;;;;;;18.40;36.90;;;;;;466689;256;1101;-54
2021/01/27 00:26:49;;;;;;;;;;;18.40;36.90;;;;;;470700;253;1093;-53
2021/01/27 00:28:50;;;;;;;;;;;18.30;36.80;;;;;;466632;255;1100;-54
2021/01/27 00:30:52;;;;;;;;;;;18.30;36.80;;;;;;470781;253;1196;-53
2021/01/27 00:32:53;;;;;;;;;;;18.30;36.90;;;;;;466634;255;1212;-53
2021/01/27 00:34:54;;;;;;;;;;;18.30;36.90;;;;;;470807;253;1134;-53
2021/01/27 00:36:55;;;;;;;;;;;18.30;36.80;;;;;;466657;255;1065;-53
2021/01/27 00:38:57;;;;;;;;;;;18.30;36.90;;;;;;470742;253;2207;-54
2021/01/27 00:40:58;;;;;;;;;;;18.30;36.90;;;;;;466757;255;1036;-53
2021/01/27 00:42:59;;;;;;;;;;;18.30;36.90;;;;;;470664;253;1185;-53
2021/01/27 00:45:01;;;;;;;;;;;18.30;35.60;;;;;;466615;256;1220;-54
2021/01/27 00:47:02;;;;;;;;;;;18.30;36.90;;;;;;470864;253;1053;-53
2021/01/27 00:49:03;;;;;;;;;;;18.30;36.90;;;;;;466706;255;1053;-53
2021/01/27 00:51:04;;;;;;;;;;;18.30;36.90;;;;;;470652;253;1107;-53
2021/01/27 00:53:06;;;;;;;;;;;18.20;36.90;;;;;;466796;255;1037;-54
2021/01/27 00:55:07;;;;;;;;;;;18.20;36.90;;;;;;470870;253;1252;-54
2021/01/27 00:57:09;;;;;;;;;;;18.20;36.90;;;;;;466658;255;1122;-53
2021/01/27 00:59:10;;;;;;;;;;;18.20;36.90;;;;;;470811;253;2156;-53
2021/01/27 01:01:11;;;;;;;;;;;18.20;36.90;;;;;;466677;255;1221;-54
2021/01/27 01:03:12;;;;;;;;;;;18.30;37.00;;;;;;470845;253;1031;-53
2021/01/27 01:05:14;;;;;;;;;;;18.20;36.90;;;;;;466712;255;1149;-53
2021/01/27 01:07:15;;;;;;;;;;;18.20;36.80;;;;;;470795;253;1063;-53
2021/01/27 01:09:16;;;;;;;;;;;18.30;36.80;;;;;;466821;255;1063;-54
2021/01/27 01:11:18;;;;;;;;;;;18.30;36.70;;;;;;470757;253;1147;-53
2021/01/27 01:13:19;;;;;;;;;;;18.30;36.60;;;;;;466875;255;1058;-53
2021/01/27 01:15:20;;;;;;;;;;;18.30;36.60;;;;;;470743;253;2476;-54
2021/01/27 01:17:21;;;;;;;;;;;18.40;36.60;;;;;;466691;255;1091;-53
2021/01/27 01:19:23;;;;;;;;;;;18.40;36.60;;;;;;470689;253;2135;-54
2021/01/27 01:21:24;;;;;;;;;;;18.40;36.50;;;;;;466689;256;1331;-53
2021/01/27 01:23:25;;;;;;;;;;;18.40;36.50;;;;;;470705;253;1135;-54
2021/01/27 01:25:26;;;;;;;;;;;18.50;36.50;;;;;;466929;255;1100;-54
2021/01/27 01:27:28;;;;;;;;;;;18.50;36.50;;;;;;470780;253;1234;-53
2021/01/27 01:29:29;;;;;;;;;;;18.50;36.40;;;;;;466694;255;1060;-53
2021/01/27 01:31:30;;;;;;;;;;;18.50;36.40;;;;;;470773;253;1420;-54
2021/01/27 01:33:31;;;;;;;;;;;18.50;36.40;;;;;;466730;255;1186;-54
2021/01/27 01:35:33;;;;;;;;;;;18.50;36.30;;;;;;470725;253;1086;-53
2021/01/27 01:37:35;;;;;;;;;;;18.60;36.30;;;;;;466602;255;1314;-54
2021/01/27 01:39:35;;;;;;;;;;;18.60;36.30;;;;;;470681;253;2459;-54
2021/01/27 01:41:37;;;;;;;;;;;18.60;36.20;;;;;;470747;252;998;-54
2021/01/27 01:43:38;;;;;;;;;;;18.60;36.20;;;;;;466613;256;1230;-54
2021/01/27 01:45:39;;;;;;;;;;;18.60;36.20;;;;;;470840;253;1178;-54
2021/01/27 01:47:41;;;;;;;;;;;18.60;36.10;;;;;;466718;255;1371;-54
2021/01/27 01:49:42;;;;;;;;;;;18.70;36.10;;;;;;470818;253;1207;-53
2021/01/27 01:51:44;;;;;;;;;;;18.70;36.10;;;;;;466782;255;1056;-53
2021/01/27 01:53:45;;;;;;;;;;;18.70;36.10;;;;;;470713;250;1329;-53
2021/01/27 01:55:46;;;;;;;;;;;18.80;36.10;;;;;;466565;255;1273;-53
2021/01/27 01:57:47;;;;;;;;;;;18.80;36.00;;;;;;470655;253;1049;-54
2021/01/27 01:59:49;;;;;;;;;;;18.80;36.00;;;;;;466698;255;2130;-54
2021/01/27 02:01:50;;;;;;;;;;;18.80;36.00;;;;;;470723;253;1226;-53
2021/01/27 02:03:51;;;;;;;;;;;18.80;36.00;;;;;;466722;255;1067;-54
2021/01/27 02:05:52;;;;;;;;;;;18.80;35.90;;;;;;470643;253;1110;-54
2021/01/27 02:07:54;;;;;;;;;;;18.80;35.90;;;;;;466647;256;1183;-53
2021/01/27 02:09:55;;;;;;;;;;;18.90;35.90;;;;;;470685;253;1294;-53
2021/01/27 02:11:56;;;;;;;;;;;18.90;35.90;;;;;;466605;256;1204;-53
2021/01/27 02:13:58;;;;;;;;;;;18.90;35.90;;;;;;470744;253;1114;-53
2021/01/27 02:15:59;;;;;;;;;;;18.90;35.90;;;;;;466617;256;1311;-54
2021/01/27 02:18:00;;;;;;;;;;;18.90;35.80;;;;;;470716;253;1064;-54
2021/01/27 02:20:01;;;;;;;;;;;18.90;35.80;;;;;;466572;256;2204;-53
2021/01/27 02:22:03;;;;;;;;;;;18.90;35.80;;;;;;470749;253;1307;-53
2021/01/27 02:24:06;;;;;;;;;;;18.90;35.80;;;;;;466636;255;1201;-54
2021/01/27 02:26:07;;;;;;;;;;;19.00;35.80;;;;;;470750;253;1121;-54
2021/01/27 02:28:08;;;;;;;;;;;19.00;35.80;;;;;;466743;255;1285;-54
2021/01/27 02:30:10;;;;;;;;;;;19.00;35.80;;;;;;470884;253;1049;-54
2021/01/27 02:32:11;;;;;;;;;;;19.00;35.80;;;;;;466631;256;1463;-54
2021/01/27 02:34:13;;;;;;;;;;;19.00;35.70;;;;;;470831;253;1216;-54
2021/01/27 02:36:14;;;;;;;;;;;19.00;35.70;;;;;;466750;255;1425;-54
2021/01/27 02:38:15;;;;;;;;;;;19.10;35.70;;;;;;470704;253;1119;-54
2021/01/27 02:40:16;;;;;;;;;;;19.10;35.70;;;;;;466576;256;2201;-53
2021/01/27 02:42:18;;;;;;;;;;;19.00;35.60;;;;;;470802;253;978;-54
2021/01/27 02:44:19;;;;;;;;;;;19.10;35.60;;;;;;466837;255;1017;-54
2021/01/27 02:46:20;;;;;;;;;;;19.10;35.60;;;;;;470728;253;1316;-54
2021/01/27 02:48:22;;;;;;;;;;;19.10;35.60;;;;;;466700;255;1088;-53
2021/01/27 02:50:23;;;;;;;;;;;19.10;35.60;;;;;;470837;253;1067;-54
2021/01/27 02:52:24;;;;;;;;;;;19.10;35.60;;;;;;466665;256;1106;-53
2021/01/27 02:54:25;;;;;;;;;;;19.10;35.60;;;;;;470912;253;1054;-54
2021/01/27 02:56:27;;;;;;;;;;;19.10;35.50;;;;;;466714;255;1102;-54
2021/01/27 02:58:28;;;;;;;;;;;19.20;35.60;;;;;;470793;253;2156;-54
2021/01/27 03:00:30;;;;;;;;;;;19.10;35.50;;;;;;466618;256;1023;-53
2021/01/27 03:02:31;;;;;;;;;;;19.20;34.20;;;;;;470708;253;1195;-54
2021/01/27 03:04:32;;;;;;;;;;;19.20;34.20;;;;;;466629;256;1063;-54
2021/01/27 03:06:34;;;;;;;;;;;19.20;35.50;;;;;;470777;253;1083;-54
2021/01/27 03:08:35;;;;;;;;;;;19.20;35.50;;;;;;466607;256;1079;-54
2021/01/27 03:10:36;;;;;;;;;;;19.30;35.50;;;;;;470715;253;1045;-54
2021/01/27 03:12:37;;;;;;;;;;;19.20;35.40;;;;;;466561;256;1097;-53
2021/01/27 03:14:39;;;;;;;;;;;19.20;35.40;;;;;;470593;251;1218;-54
2021/01/27 03:16:40;;;;;;;;;;;19.30;35.40;;;;;;466621;255;1378;-54
2021/01/27 03:18:41;;;;;;;;;;;19.30;35.40;;;;;;470719;253;2132;-54
2021/01/27 03:20:42;;;;;;;;;;;19.30;35.40;;;;;;466618;256;1208;-54
2021/01/27 03:22:44;;;;;;;;;;;19.30;34.10;;;;;;470796;253;1224;-53
2021/01/27 03:24:45;;;;;;;;;;;19.30;35.40;;;;;;466671;255;1067;-54
2021/01/27 03:26:46;;;;;;;;;;;19.30;35.40;;;;;;470784;253;1236;-54
2021/01/27 03:28:48;;;;;;;;;;;19.30;35.40;;;;;;466637;255;1059;-54
2021/01/27 03:30:49;;;;;;;;;;;19.30;35.40;;;;;;470739;253;1130;-54
2021/01/27 03:32:50;;;;;;;;;;;19.30;35.30;;;;;;466673;255;1295;-54
2021/01/27 03:34:51;;;;;;;;;;;19.30;35.30;;;;;;470639;253;1076;-54
2021/01/27 03:36:53;;;;;;;;;;;19.30;35.30;;;;;;466566;255;1099;-54
2021/01/27 03:38:54;;;;;;;;;;;19.40;35.40;;;;;;470789;253;2203;-54
2021/01/27 03:40:55;;;;;;;;;;;19.40;35.40;;;;;;466597;255;1050;-54
2021/01/27 03:42:56;;;;;;;;;;;19.40;35.30;;;;;;470708;253;1105;-54
2021/01/27 03:44:58;;;;;;;;;;;19.40;35.30;;;;;;466681;255;1064;-53
2021/01/27 03:46:59;;;;;;;;;;;19.40;35.30;;;;;;470804;253;1183;-54
2021/01/27 03:49:00;;;;;;;;;;;19.40;35.30;;;;;;466838;255;1324;-54
2021/01/27 03:51:02;;;;;;;;;;;19.40;35.30;;;;;;470842;253;1098;-54
2021/01/27 03:53:03;;;;;;;;;;;19.40;35.30;;;;;;466632;255;1117;-54
2021/01/27 03:55:04;;;;;;;;;;;19.40;35.20;;;;;;470881;253;1197;-54
2021/01/27 03:57:05;;;;;;;;;;;19.50;35.30;;;;;;466604;255;1043;-54
2021/01/27 03:59:07;;;;;;;;;;;19.40;35.20;;;;;;470745;253;2202;-53
2021/01/27 04:01:08;;;;;;;;;;;19.40;35.20;;;;;;466736;255;1139;-53
2021/01/27 04:03:09;;;;;;;;;;;19.40;35.20;;;;;;470774;253;1212;-54
2021/01/27 04:05:11;;;;;;;;;;;19.50;35.20;;;;;;466675;255;1067;-54
2021/01/27 04:07:12;;;;;;;;;;;19.40;35.20;;;;;;470892;253;1057;-54
2021/01/27 04:09:13;;;;;;;;;;;19.50;35.20;;;;;;466798;255;981;-54
2021/01/27 04:11:14;;;;;;;;;;;19.50;35.20;;;;;;470741;253;1035;-53
2021/01/27 04:13:16;;;;;;;;;;;19.50;35.20;;;;;;466590;256;1354;-54
2021/01/27 04:15:17;;;;;;;;;;;19.50;35.20;;;;;;470773;253;1064;-54
2021/01/27 04:17:18;;;;;;;;;;;19.50;35.20;;;;;;466752;255;1280;-54
2021/01/27 04:19:19;;;;;;;;;;;19.50;33.90;;;;;;470754;253;2143;-54
2021/01/27 04:21:21;;;;;;;;;;;19.50;35.20;;;;;;466948;255;1058;-54
2021/01/27 04:23:22;;;;;;;;;;;19.50;35.10;;;;;;470732;253;1087;-54
2021/01/27 04:25:23;;;;;;;;;;;19.60;35.20;;;;;;466622;256;1067;-54
2021/01/27 04:27:25;;;;;;;;;;;19.50;35.10;;;;;;470693;253;1100;-53
2021/01/27 04:29:26;;;;;;;;;;;19.50;35.10;;;;;;466841;255;1055;-54
2021/01/27 04:31:27;;;;;;;;;;;19.50;35.10;;;;;;470766;253;1113;-54
2021/01/27 04:33:28;;;;;;;;;;;19.50;35.10;;;;;;466608;256;1203;-54
2021/01/27 04:35:31;;;;;;;;;;;19.60;35.10;;;;;;470738;253;1065;-53
2021/01/27 04:37:31;;;;;;;;;;;19.60;35.10;;;;;;466497;256;1985;-54
2021/01/27 04:39:33;;;;;;;;;;;19.50;35.10;;;;;;470757;253;2152;-54
2021/01/27 04:41:35;;;;;;;;;;;19.60;35.10;;;;;;466819;255;1221;-54
2021/01/27 04:43:35;;;;;;;;;;;19.60;35.10;;;;;;470688;249;1827;-54
2021/01/27 04:45:36;;;;;;;;;;;19.60;35.10;;;;;;466763;255;1012;-54
2021/01/27 04:47:38;;;;;;;;;;;19.60;35.10;;;;;;470767;253;1215;-54
2021/01/27 04:49:40;;;;;;;;;;;19.60;35.10;;;;;;466670;255;1039;-54
2021/01/27 04:51:41;;;;;;;;;;;19.60;35.10;;;;;;470682;253;1047;-53
2021/01/27 04:53:42;;;;;;;;;;;19.60;35.10;;;;;;466932;255;1040;-54
2021/01/27 04:55:44;;;;;;;;;;;19.60;35.10;;;;;;470825;253;1192;-54
2021/01/27 04:57:45;;;;;;;;;;;19.60;35.00;;;;;;466667;255;1329;-54
2021/01/27 04:59:46;;;;;;;;;;;19.60;35.00;;;;;;470774;253;2140;-54
2021/01/27 05:01:47;;;;;;;;;;;19.60;35.00;;;;;;466638;256;1252;-54
2021/01/27 05:03:49;;;;;;;;;;;19.60;35.00;;;;;;470819;253;1230;-53
2021/01/27 05:05:50;;;;;;;;;;;19.60;35.00;;;;;;466595;256;1053;-54
2021/01/27 05:07:51;;;;;;;;;;;19.60;35.00;;;;;;470844;252;1306;-54
2021/01/27 05:09:53;;;;;;;;;;;19.60;35.00;;;;;;466654;255;1077;-53
2021/01/27 05:11:54;;;;;;;;;;;19.60;35.00;;;;;;470741;253;1289;-54
2021/01/27 05:13:55;;;;;;;;;;;19.70;35.00;;;;;;466620;256;1203;-54
2021/01/27 05:15:56;;;;;;;;;;;19.70;35.00;;;;;;470855;253;1078;-54
2021/01/27 05:17:58;;;;;;;;;;;19.70;35.00;;;;;;466725;255;1206;-54
2021/01/27 05:19:59;;;;;;;;;;;19.70;35.00;;;;;;470669;253;2218;-54
2021/01/27 05:22:01;;;;;;;;;;;19.70;35.00;;;;;;466517;255;1054;-54
2021/01/27 05:24:01;;;;;;;;;;;19.70;35.00;;;;;;470657;253;2371;-54
2021/01/27 05:26:03;;;;;;;;;;;19.70;35.00;;;;;;466474;256;1093;-53
2021/01/27 05:28:04;;;;;;;;;;;19.70;34.90;;;;;;470810;252;1391;-54
2021/01/27 05:30:05;;;;;;;;;;;19.70;35.00;;;;;;466600;256;1081;-54
2021/01/27 05:32:07;;;;;;;;;;;19.70;34.90;;;;;;470750;253;1009;-54
2021/01/27 05:34:08;;;;;;;;;;;19.70;34.90;;;;;;466461;256;1163;-54
2021/01/27 05:36:09;;;;;;;;;;;19.70;34.90;;;;;;470617;253;1145;-54
2021/01/27 05:38:10;;;;;;;;;;;19.70;34.90;;;;;;466488;256;1106;-54
2021/01/27 05:40:12;;;;;;;;;;;19.70;34.90;;;;;;470564;253;2207;-53
2021/01/27 05:42:13;;;;;;;;;;;19.70;33.60;;;;;;466374;255;1059;-54
2021/01/27 05:44:14;;;;;;;;;;;19.70;34.90;;;;;;470526;250;1438;-54
2021/01/27 05:46:15;;;;;;;;;;;19.70;34.90;;;;;;466549;255;1070;-53
2021/01/27 05:48:17;;;;;;;;;;;19.70;34.90;;;;;;470499;253;1144;-54
2021/01/27 05:50:18;;;;;;;;;;;19.70;34.90;;;;;;466403;256;1262;-54
2021/01/27 05:52:19;;;;;;;;;;;19.70;34.80;;;;;;470476;253;1222;-54
2021/01/27 05:54:21;;;;;;;;;;;19.70;33.50;;;;;;466556;255;1059;-54
2021/01/27 05:56:22;;;;;;;;;;;19.70;34.80;;;;;;470536;253;1245;-54
2021/01/27 05:58:24;;;;;;;;;;;19.80;34.90;;;;;;466443;255;1059;-54
2021/01/27 06:00:26;;;;;;;;;;;19.70;34.80;;;;;;470564;253;2195;-54
2021/01/27 06:02:27;;;;;;;;;;;19.80;34.90;;;;;;466491;255;1109;-54
2021/01/27 06:04:28;;;;;;;;;;;19.80;34.80;;;;;;470588;253;1089;-54
2021/01/27 06:06:29;;;;;;;;;;;19.80;34.80;;;;;;466480;255;1243;-54
2021/01/27 06:08:31;;;;;;;;;;;19.80;34.80;;;;;;470516;253;1111;-54
2021/01/27 06:10:32;;;;;;;;;;;19.80;34.80;;;;;;466436;255;1058;-54
2021/01/27 06:12:33;;;;;;;;;;;19.80;34.80;;;;;;470389;253;1040;-54
2021/01/27 06:14:35;;;;;;;;;;;19.80;34.80;;;;;;466317;256;1103;-54
2021/01/27 06:16:41;;;;;;;;;;;19.80;34.80;;;;;;470512;253;1084;-54
2021/01/27 06:18:38;;;;;;;;;;;19.80;34.80;;;;;;466131;255;1747;-53
2021/01/27 06:20:39;;;;;;;;;;;19.80;34.80;;;;;;470355;253;2199;-54
2021/01/27 06:22:40;;;;;;;;;;;19.80;33.50;;;;;;466255;255;1057;-54
2021/01/27 06:24:41;;;;;;;;;;;19.80;34.80;;;;;;470395;253;1058;-54
2021/01/27 06:26:43;;;;;;;;;;;19.80;34.80;;;;;;466365;255;1080;-54
2021/01/27 06:28:44;;;;;;;;;;;19.80;34.80;;;;;;470257;253;1041;-54
2021/01/27 06:30:45;;;;;;;;;;;19.80;34.70;;;;;;466294;255;1126;-54
2021/01/27 06:32:47;;;;;;;;;;;19.80;34.80;;;;;;470281;253;1097;-54
2021/01/27 06:34:48;;;;;;;;;;;19.80;34.70;;;;;;466335;255;1335;-54
2021/01/27 06:36:49;;;;;;;;;;;19.80;33.40;;;;;;470446;253;1102;-54
2021/01/27 06:38:51;;;;;;;;;;;19.80;34.80;;;;;;466231;255;1058;-53
2021/01/27 06:40:52;;;;;;;;;;;19.90;34.80;;;;;;470377;253;2148;-54
2021/01/27 06:42:53;;;;;;;;;;;19.80;34.70;;;;;;466276;255;1063;-54
2021/01/27 06:44:55;;;;;;;;;;;19.80;34.70;;;;;;470469;253;1067;-54
2021/01/27 06:46:56;;;;;;;;;;;19.80;34.70;;;;;;466377;255;1208;-54
2021/01/27 06:48:57;;;;;;;;;;;19.80;34.70;;;;;;470381;253;1116;-54
2021/01/27 06:50:58;;;;;;;;;;;19.80;34.70;;;;;;466342;256;1217;-54
2021/01/27 06:53:00;;;;;;;;;;;19.80;34.70;;;;;;470403;253;1099;-54
2021/01/27 06:55:01;;;;;;;;;;;19.80;34.70;;;;;;466318;256;1288;-54
2021/01/27 06:57:02;;;;;;;;;;;19.90;33.40;;;;;;470370;253;1330;-54
2021/01/27 06:59:03;;;;;;;;;;;19.90;34.70;;;;;;466103;256;1057;-54
2021/01/27 07:01:05;;;;;;;;;;;19.90;34.70;;;;;;470398;253;2194;-54
2021/01/27 07:03:06;;;;;;;;;;;19.90;34.70;;;;;;466206;256;1108;-54
2021/01/27 07:05:07;;;;;;;;;;;19.90;34.70;;;;;;470219;253;1198;-54
2021/01/27 07:07:09;;;;;;;;;;;19.90;34.70;;;;;;466128;256;1093;-54
2021/01/27 07:09:10;;;;;;;;;;;19.90;34.70;;;;;;470274;253;1083;-54
2021/01/27 07:11:11;;;;;;;;;;;19.90;34.70;;;;;;466289;256;1100;-54
2021/01/27 07:13:12;;;;;;;;;;;19.90;34.70;;;;;;470361;253;1082;-54
2021/01/27 07:15:14;;;;;;;;;;;19.90;34.60;;;;;;466051;255;1078;-54
2021/01/27 07:17:15;;;;;;;;;;;19.90;34.70;;;;;;470195;253;1066;-54
2021/01/27 07:19:16;;;;;;;;;;;19.90;34.70;;;;;;466236;256;1196;-54
2021/01/27 07:21:17;;;;;;;;;;;19.90;34.70;;;;;;470291;253;2207;-54
2021/01/27 07:23:19;;;;;;;;;;;19.90;34.70;;;;;;466139;255;1103;-54
2021/01/27 07:25:20;;;;;;;;;;;19.90;34.70;;;;;;470119;253;1090;-54
2021/01/27 07:27:21;;;;;;;;;;;19.90;33.40;;;;;;466095;255;1078;-54
2021/01/27 07:29:23;;;;;;;;;;;19.90;33.30;;;;;;470231;253;1040;-54
2021/01/27 07:31:24;;;;;;;;;;;19.90;34.70;;;;;;466292;256;1069;-54
2021/01/27 07:33:25;;;;;;;;;;;19.90;34.60;;;;;;470329;253;1082;-54
2021/01/27 07:35:27;;;;;;;;;;;19.90;34.60;;;;;;466266;255;1320;-54
2021/01/27 07:37:28;;;;;;;;;;;19.90;34.60;;;;;;470168;253;1098;-54
2021/01/27 07:39:29;;;;;;;;;;;19.90;34.70;;;;;;465984;255;1047;-54
2021/01/27 07:41:30;;;;;;;;;;;19.90;34.70;;;;;;469929;253;2151;-54
2021/01/27 07:43:32;;;;;;;;;;;19.90;34.60;;;;;;466032;256;1271;-54
2021/01/27 07:45:33;;;;;;;;;;;19.90;34.60;;;;;;470170;253;1180;-54
2021/01/27 07:47:34;;;;;;;;;;;19.90;34.60;;;;;;466037;256;1132;-54
2021/01/27 07:49:36;;;;;;;;;;;19.90;34.60;;;;;;470087;253;1205;-53
2021/01/27 07:51:37;;;;;;;;;;;20.00;34.70;;;;;;465853;255;1192;-54
2021/01/27 07:53:38;;;;;;;;;;;20.00;34.70;;;;;;470209;253;1382;-54
2021/01/27 07:55:40;;;;;;;;;;;19.90;34.60;;;;;;466065;255;1274;-54
2021/01/27 07:57:41;;;;;;;;;;;20.00;34.70;;;;;;470186;253;1234;-54
2021/01/27 07:59:42;;;;;;;;;;;20.00;34.70;;;;;;466011;255;1230;-54
2021/01/27 08:01:43;;;;;;;;;;;20.00;34.60;;;;;;470018;253;2202;-54
2021/01/27 08:03:45;;;;;;;;;;;19.90;34.60;;;;;;466001;255;1073;-53
2021/01/27 08:05:46;;;;;;;;;;;20.00;34.60;;;;;;470062;253;1198;-53
2021/01/27 08:07:49;;;;;;;;;;;20.00;33.60;;;;;;466103;255;1200;-54
2021/01/27 08:09:49;;;;;;;;;;;20.00;33.70;;;;;;470024;253;2107;-54
2021/01/27 08:11:50;;;;;;;;;;;20.00;34.60;;;;;;470087;253;1111;-54
2021/01/27 08:13:51;;;;;;;;;;;20.10;34.50;;;;;;466008;255;1205;-53
2021/01/27 08:15:52;;;;;;;;;;;20.00;34.50;;;;;;470029;253;1082;-54
2021/01/27 08:17:54;;;;;;;;;;;20.00;34.60;;;;;;466052;255;1098;-53
2021/01/27 08:19:55;;;;;;;;;;;19.90;34.70;;;;;;470055;253;1036;-54
2021/01/27 08:21:57;;;;;;;;;;;19.90;34.80;;;;;;466022;255;2162;-54
2021/01/27 08:23:58;;;;;;;;;;;19.80;34.90;;;;;;469900;253;1116;-54
2021/01/27 08:26:00;;;;;;;;;;;19.70;34.90;;;;;;465825;255;1136;-54
2021/01/27 08:28:01;;;;;;;;;;;19.80;35.10;;;;;;469946;253;2390;-54
2021/01/27 08:30:04;;;;;;;;;;;19.60;35.10;;;;;;466066;255;1198;-54
2021/01/27 08:32:04;;;;;;;;;;;19.60;33.90;;;;;;469973;253;2113;-53
2021/01/27 08:34:05;;;;;;;;;;;19.60;35.30;;;;;;465895;256;1136;-54
2021/01/27 08:36:06;;;;;;;;;;;19.50;35.30;;;;;;469910;253;1161;-53
2021/01/27 08:38:07;;;;;;;;;;;19.50;35.40;;;;;;465874;255;1121;-54
2021/01/27 08:40:09;;;;;;;;;;;19.50;35.40;;;;;;469913;253;1129;-54
2021/01/27 08:42:10;;;;;;;;;;;19.40;35.50;;;;;;465802;255;2121;-53
2021/01/27 08:44:12;;;;;;;;;;;19.40;35.50;;;;;;469946;253;1275;-54
2021/01/27 08:46:13;;;;;;;;;;;19.30;35.60;;;;;;466000;255;1174;-53
2021/01/27 08:48:15;;;;;;;;;;;19.30;35.60;;;;;;470082;253;1134;-53
2021/01/27 08:50:16;;;;;;;;;;;19.30;35.70;;;;;;465901;255;1062;-53
2021/01/27 08:52:18;;;;;;;;;;;19.20;35.70;;;;;;470007;253;1274;-53
2021/01/27 08:54:19;;;;;;;;;;;19.20;34.50;;;;;;466008;255;1068;-54
2021/01/27 08:56:20;;;;;;;;;;;19.10;35.80;;;;;;469963;253;1163;-53
2021/01/27 08:58:21;;;;;;;;;;;19.10;35.80;;;;;;465876;255;1103;-53
2021/01/27 09:00:23;;;;;;;;;;;19.10;35.80;;;;;;470079;253;1229;-54
2021/01/27 09:02:24;;;;;;;;;;;19.10;35.90;;;;;;466022;255;2134;-53
2021/01/27 09:04:25;;;;;;;;;;;19.10;35.90;;;;;;470037;253;1148;-53
2021/01/27 09:06:27;;;;;;;;;;;19.10;36.00;;;;;;465975;256;1242;-53
2021/01/27 09:08:29;;;;;;;;;;;19.00;36.00;;;;;;470127;253;1185;-53
2021/01/27 09:10:30;;;;;;;;;;;19.00;36.00;;;;;;465894;256;1176;-53
2021/01/27 09:12:31;;;;;;;;;;;19.00;36.00;;;;;;470038;253;1074;-53
2021/01/27 09:14:32;;;;;;;;;;;19.00;34.70;;;;;;466170;255;1043;-54
2021/01/27 09:16:34;;;;;;;;;;;18.90;36.10;;;;;;470163;253;1083;-54
2021/01/27 09:18:35;;;;;;;;;;;18.90;34.80;;;;;;465996;256;1134;-54
2021/01/27 09:20:36;;;;;;;;;;;18.90;34.80;;;;;;469945;253;2219;-54
2021/01/27 09:22:38;;;;;;;;;;;18.90;36.10;;;;;;465958;255;1231;-53
2021/01/27 09:24:39;;;;;;;;;;;18.90;36.20;;;;;;470099;253;1207;-53
2021/01/27 09:26:41;;;;;;;;;;;18.80;36.20;;;;;;465999;255;1229;-54
2021/01/27 09:28:41;;;;;;;;;;;18.80;36.20;;;;;;470093;253;2082;-53
2021/01/27 09:30:43;;;;;;;;;;;18.80;36.20;;;;;;466112;255;1159;-54
2021/01/27 09:32:45;;;;;;;;;;;18.80;36.20;;;;;;470129;253;1199;-54
2021/01/27 09:34:46;;;;;;;;;;;18.80;36.30;;;;;;465824;253;2067;-53
2021/01/27 09:36:47;;;;;;;;;;;18.70;36.20;;;;;;470013;253;1257;-53
2021/01/27 09:38:48;;;;;;;;;;;18.70;36.30;;;;;;466007;256;1209;-53
2021/01/27 09:40:50;;;;;;;;;;;18.70;36.30;;;;;;470093;253;2191;-54
2021/01/27 09:42:51;;;;;;;;;;;18.70;36.30;;;;;;466004;256;1226;-53
2021/01/27 09:44:52;;;;;;;;;;;18.70;36.30;;;;;;469971;253;1139;-53
2021/01/27 09:46:53;;;;;;;;;;;18.70;36.30;;;;;;465921;255;1086;-53
2021/01/27 09:48:55;;;;;;;;;;;18.60;35.00;;;;;;470050;253;1094;-54
2021/01/27 09:50:58;;;;;;;;;;;18.60;36.30;;;;;;466066;255;1091;-53
2021/01/27 09:52:57;;;;;;;;;;;18.60;36.30;;;;;;469900;253;2200;-53
2021/01/27 09:54:59;;;;;;;;;;;18.60;36.30;;;;;;469924;252;1077;-53
2021/01/27 09:57:00;;;;;;;;;;;18.60;35.10;;;;;;465753;255;1112;-54
2021/01/27 09:59:01;;;;;;;;;;;18.60;35.10;;;;;;469938;253;1230;-54
2021/01/27 10:01:03;;;;;;;;;;;18.60;36.40;;;;;;469914;253;2152;-53
2021/01/27 10:03:04;;;;;;;;;;;18.60;35.10;;;;;;465933;255;1354;-53
2021/01/27 10:05:05;;;;;;;;;;;18.60;36.40;;;;;;469724;253;1149;-54
2021/01/27 10:07:06;;;;;;;;;;;18.50;36.40;;;;;;465901;255;1200;-54
2021/01/27 10:09:08;;;;;;;;;;;18.50;35.10;;;;;;470030;253;1074;-53
2021/01/27 10:11:09;;;;;;;;;;;18.50;35.10;;;;;;466005;255;1144;-54
2021/01/27 10:13:10;;;;;;;;;;;18.50;36.40;;;;;;470097;253;1043;-54
2021/01/27 10:15:11;;;;;;;;;;;18.50;36.40;;;;;;465882;255;1099;-53
2021/01/27 10:17:13;;;;;;;;;;;18.50;36.40;;;;;;469921;253;1343;-53
2021/01/27 10:19:14;;;;;;;;;;;18.50;36.40;;;;;;465646;256;1293;-54
2021/01/27 10:21:15;;;;;;;;;;;18.50;36.40;;;;;;469910;253;2191;-53
2021/01/27 10:23:16;;;;;;;;;;;18.50;36.40;;;;;;465954;256;1224;-54
2021/01/27 10:25:18;;;;;;;;;;;18.50;36.40;;;;;;469969;253;1125;-53
2021/01/27 10:27:19;;;;;;;;;;;18.50;36.40;;;;;;465919;255;1125;-54
2021/01/27 10:29:20;;;;;;;;;;;18.50;36.40;;;;;;469896;251;1130;-53
2021/01/27 10:31:22;;;;;;;;;;;18.50;35.10;;;;;;465908;255;1172;-53
2021/01/27 10:33:23;;;;;;;;;;;18.50;35.10;;;;;;470057;253;1138;-54
2021/01/27 10:35:24;;;;;;;;;;;18.50;36.50;;;;;;465973;255;1217;-53
2021/01/27 10:37:26;;;;;;;;;;;18.40;36.40;;;;;;470133;253;1107;-53
2021/01/27 10:39:27;;;;;;;;;;;18.50;35.20;;;;;;466012;255;1098;-54
2021/01/27 10:41:28;;;;;;;;;;;18.40;36.40;;;;;;469983;253;2191;-53
2021/01/27 10:43:30;;;;;;;;;;;18.40;36.40;;;;;;465893;256;1212;-53
2021/01/27 10:45:31;;;;;;;;;;;18.40;36.40;;;;;;470206;253;1059;-53
2021/01/27 10:47:32;;;;;;;;;;;18.40;36.40;;;;;;466081;256;1355;-53
2021/01/27 10:49:33;;;;;;;;;;;18.40;35.10;;;;;;470088;253;1126;-53
2021/01/27 10:51:35;;;;;;;;;;;18.40;36.50;;;;;;465928;256;1287;-54
2021/01/27 10:53:36;;;;;;;;;;;18.40;36.40;;;;;;469821;253;1221;-54
2021/01/27 10:55:37;;;;;;;;;;;18.40;36.40;;;;;;469829;252;1085;-53
2021/01/27 10:57:38;;;;;;;;;;;18.40;35.20;;;;;;465722;256;1172;-54
2021/01/27 10:59:40;;;;;;;;;;;18.40;36.50;;;;;;469948;253;1111;-53
2021/01/27 11:01:41;;;;;;;;;;;18.40;35.20;;;;;;465958;255;2146;-53
2021/01/27 11:03:43;;;;;;;;;;;18.30;36.40;;;;;;469987;253;1096;-54
2021/01/27 11:05:44;;;;;;;;;;;18.40;35.20;;;;;;466034;255;1078;-53
2021/01/27 11:07:45;;;;;;;;;;;18.30;35.10;;;;;;469958;253;1119;-54
2021/01/27 11:09:47;;;;;;;;;;;18.40;36.50;;;;;;465945;255;1092;-54
2021/01/27 11:11:48;;;;;;;;;;;18.30;36.50;;;;;;470030;253;1091;-54
2021/01/27 11:13:49;;;;;;;;;;;18.30;36.50;;;;;;465882;256;1064;-53
2021/01/27 11:15:50;;;;;;;;;;;18.40;35.20;;;;;;469825;253;1066;-54
2021/01/27 11:17:52;;;;;;;;;;;18.30;35.10;;;;;;465677;256;1204;-53
2021/01/27 11:19:53;;;;;;;;;;;18.30;36.40;;;;;;470011;253;1194;-54
2021/01/27 11:21:54;;;;;;;;;;;18.30;36.50;;;;;;465991;255;2161;-53
2021/01/27 11:23:56;;;;;;;;;;;18.30;35.10;;;;;;470017;253;1554;-54
2021/01/27 11:25:57;;;;;;;;;;;18.30;36.40;;;;;;465885;256;1210;-53
2021/01/27 11:27:58;;;;;;;;;;;18.30;36.40;;;;;;470023;253;1133;-53
2021/01/27 11:30:00;;;;;;;;;;;18.30;35.10;;;;;;465755;256;1210;-53
2021/01/27 11:32:01;;;;;;;;;;;18.30;35.10;;;;;;469837;253;1188;-53
2021/01/27 11:34:02;;;;;;;;;;;18.30;35.10;;;;;;466000;256;1162;-53
2021/01/27 11:36:04;;;;;;;;;;;18.30;35.10;;;;;;470153;253;1221;-54
2021/01/27 11:38:05;;;;;;;;;;;18.30;36.40;;;;;;466088;256;1246;-53
2021/01/27 11:40:06;;;;;;;;;;;18.30;36.40;;;;;;470015;253;1069;-53
2021/01/27 11:42:07;;;;;;;;;;;18.30;36.40;;;;;;466090;255;2193;-53
2021/01/27 11:44:10;;;;;;;;;;;18.30;36.40;;;;;;470017;253;1155;-53
2021/01/27 11:46:11;;;;;;;;;;;18.30;36.50;;;;;;466009;255;1084;-54
2021/01/27 11:48:12;;;;;;;;;;;18.30;36.50;;;;;;470160;253;1240;-53
2021/01/27 11:50:13;;;;;;;;;;;18.30;36.50;;;;;;466016;255;1388;-53
2021/01/27 11:52:15;;;;;;;;;;;18.30;36.50;;;;;;470203;253;1320;-53
2021/01/27 11:54:16;;;;;;;;;;;18.30;35.20;;;;;;466060;256;1505;-53
2021/01/27 11:56:17;;;;;;;;;;;18.20;36.50;;;;;;470179;253;1103;-53